Time;durP1;ratioP1;P1;durP2;ratioP2;P2;SDS_P1;SDS_P2;PMS_P1;PMS_P2;Temp;Humidity;BMP_temperature;BMP_pressure;BME280_temperature;BME280_humidity;BME280_pressure;Samples;Min_cycle;Max_cycle;Signal;HPM_P1;HPM_P2
2021/05/25 00:02:02;;;;;;;3.45;1.45;;;;;;;;;;10268858;28;20721;-68
2021/05/25 00:06:59;;;;;;;6.07;1.48;;;;;;;;;;10283644;28;20102;-71
2021/05/25 00:11:55;;;;;;;3.08;1.60;;;;;;;;;;10273081;28;20125;-68
2021/05/25 00:16:52;;;;;;;3.55;1.27;;;;;;;;;;10262188;28;20042;-71
2021/05/25 00:21:49;;;;;;;5.45;1.45;;;;;;;;;;10277397;28;20076;-71
2021/05/25 00:26:45;;;;;;;3.75;1.25;;;;;;;;;;10270823;28;20510;-67
2021/05/25 00:31:42;;;;;;;3.97;1.30;;;;;;;;;;10268056;28;20185;-71
2021/05/25 00:36:38;;;;;;;3.13;1.20;;;;;;;;;;10272262;28;20491;-68
2021/05/25 00:41:36;;;;;;;3.60;1.38;;;;;;;;;;10269737;28;20102;-69
2021/05/25 00:46:32;;;;;;;2.45;1.10;;;;;;;;;;10260785;28;20049;-69
2021/05/25 00:51:28;;;;;;;4.75;1.13;;;;;;;;;;10285766;28;20568;-70
2021/05/25 00:56:25;;;;;;;3.55;1.30;;;;;;;;;;10278416;28;20049;-69
2021/05/25 01:01:21;;;;;;;2.40;1.00;;;;;;;;;;10280836;28;20103;-69
2021/05/25 01:06:17;;;;;;;3.72;1.60;;;;;;;;;;10259378;28;20045;-72
2021/05/25 01:11:16;;;;;;;3.10;1.17;;;;;;;;;;10269195;28;20465;-67
2021/05/25 01:16:13;;;;;;;3.75;1.15;;;;;;;;;;10274645;28;20094;-69
2021/05/25 01:21:12;;;;;;;2.75;1.13;;;;;;;;;;10275032;28;20072;-68
2021/05/25 01:26:09;;;;;;;3.28;1.40;;;;;;;;;;10271542;28;20505;-69
2021/05/25 01:31:06;;;;;;;4.13;1.30;;;;;;;;;;10280115;28;20091;-69
2021/05/25 01:36:04;;;;;;;3.75;1.30;;;;;;;;;;10278907;28;20048;-70
2021/05/25 01:41:00;;;;;;;3.25;1.17;;;;;;;;;;10278268;28;20064;-68
2021/05/25 01:45:57;;;;;;;3.97;1.25;;;;;;;;;;10259393;28;20091;-71
2021/05/25 01:50:53;;;;;;;3.38;1.10;;;;;;;;;;10276847;28;20044;-68
2021/05/25 01:55:51;;;;;;;3.03;1.20;;;;;;;;;;10271025;28;20427;-71
2021/05/25 02:00:58;;;;;;;4.93;1.13;;;;;;;;;;10273886;28;20159;-68
2021/05/25 02:05:54;;;;;;;4.43;1.42;;;;;;;;;;10268070;28;20102;-68
2021/05/25 02:10:52;;;;;;;3.80;1.20;;;;;;;;;;10268667;28;20087;-67
2021/05/25 02:15:49;;;;;;;4.95;1.38;;;;;;;;;;10268841;28;20098;-68
2021/05/25 02:20:46;;;;;;;5.43;1.52;;;;;;;;;;10258439;28;20092;-69
2021/05/25 02:25:43;;;;;;;3.97;1.63;;;;;;;;;;10264727;28;20093;-70
2021/05/25 02:30:40;;;;;;;4.57;1.52;;;;;;;;;;10255094;28;20072;-70
2021/05/25 02:35:37;;;;;;;7.32;2.28;;;;;;;;;;10263438;28;20091;-69
2021/05/25 02:40:34;;;;;;;4.85;1.80;;;;;;;;;;10260144;28;20095;-69
2021/05/25 02:45:31;;;;;;;4.10;1.65;;;;;;;;;;10256475;28;20576;-72
2021/05/25 02:50:28;;;;;;;5.35;1.70;;;;;;;;;;10256428;28;20069;-70
2021/05/25 02:55:25;;;;;;;3.70;1.80;;;;;;;;;;10263196;28;20061;-71
2021/05/25 03:00:23;;;;;;;5.00;1.95;;;;;;;;;;10262449;28;20120;-70
2021/05/25 03:05:22;;;;;;;4.57;1.88;;;;;;;;;;10264303;28;20449;-72
2021/05/25 03:10:19;;;;;;;4.10;2.03;;;;;;;;;;10253868;28;20087;-73
2021/05/25 03:15:17;;;;;;;4.93;2.10;;;;;;;;;;10266433;28;20057;-73
2021/05/25 03:20:14;;;;;;;3.70;1.75;;;;;;;;;;10258121;28;20103;-73
2021/05/25 03:25:11;;;;;;;5.25;1.83;;;;;;;;;;10261744;28;20083;-69
2021/05/25 03:30:09;;;;;;;5.63;2.03;;;;;;;;;;10262361;28;20045;-69
2021/05/25 03:35:06;;;;;;;5.97;1.92;;;;;;;;;;10264934;28;20079;-70
2021/05/25 03:40:04;;;;;;;6.07;2.33;;;;;;;;;;10263088;28;20564;-71
2021/05/25 03:45:00;;;;;;;4.28;2.20;;;;;;;;;;10267722;28;20060;-71
2021/05/25 03:50:06;;;;;;;5.90;2.00;;;;;;;;;;10269657;28;20041;-70
2021/05/25 03:55:06;;;;;;;4.40;2.38;;;;;;;;;;10265171;28;20060;-70
2021/05/25 04:00:03;;;;;;;3.72;2.03;;;;;;;;;;10265745;28;20049;-70
2021/05/25 04:05:00;;;;;;;4.55;2.50;;;;;;;;;;10277643;28;20131;-68
2021/05/25 04:09:56;;;;;;;4.00;2.00;;;;;;;;;;10265466;28;20045;-69
2021/05/25 04:14:53;;;;;;;8.73;1.95;;;;;;;;;;10272841;28;20540;-67
2021/05/25 04:19:49;;;;;;;3.58;1.65;;;;;;;;;;10275782;28;20045;-69
2021/05/25 04:24:45;;;;;;;3.78;1.75;;;;;;;;;;10269635;28;20072;-69
2021/05/25 04:29:41;;;;;;;5.35;2.15;;;;;;;;;;10269107;28;20041;-68
2021/05/25 04:34:38;;;;;;;4.57;2.17;;;;;;;;;;10269425;28;20045;-71
2021/05/25 04:39:35;;;;;;;3.38;1.65;;;;;;;;;;10266419;28;20051;-71
2021/05/25 04:44:32;;;;;;;3.55;1.77;;;;;;;;;;10270305;28;20163;-71
2021/05/25 04:49:28;;;;;;;22.02;3.17;;;;;;;;;;10264931;28;20041;-70
2021/05/25 04:54:25;;;;;;;5.10;2.10;;;;;;;;;;10268835;28;20118;-70
2021/05/25 04:59:21;;;;;;;4.28;2.17;;;;;;;;;;10264514;28;20049;-70
2021/05/25 05:04:17;;;;;;;4.10;2.00;;;;;;;;;;10270743;28;20041;-70
2021/05/25 05:09:14;;;;;;;6.68;2.35;;;;;;;;;;10271898;28;20083;-70
2021/05/25 05:14:10;;;;;;;3.58;2.10;;;;;;;;;;10268390;28;20580;-69
2021/05/25 05:19:07;;;;;;;3.17;2.00;;;;;;;;;;10260137;28;20489;-68
2021/05/25 05:24:03;;;;;;;3.92;1.85;;;;;;;;;;10263441;28;20073;-67
2021/05/25 05:29:00;;;;;;;4.57;1.80;;;;;;;;;;10248988;28;20506;-68
2021/05/25 05:33:57;;;;;;;6.70;1.95;;;;;;;;;;10261158;28;20049;-68
2021/05/25 05:38:53;;;;;;;5.75;2.80;;;;;;;;;;10265583;28;20057;-69
2021/05/25 05:43:50;;;;;;;7.28;3.72;;;;;;;;;;10257896;28;20041;-69
2021/05/25 05:48:46;;;;;;;4.32;2.30;;;;;;;;;;10246461;28;20038;-67
2021/05/25 05:53:43;;;;;;;5.85;2.45;;;;;;;;;;10258071;28;20061;-68
2021/05/25 05:58:39;;;;;;;7.75;3.15;;;;;;;;;;10263153;28;20041;-67
2021/05/25 06:03:36;;;;;;;6.07;3.60;;;;;;;;;;10260933;28;20138;-68
2021/05/25 06:08:32;;;;;;;7.68;4.22;;;;;;;;;;10268227;28;20733;-68
2021/05/25 06:13:29;;;;;;;6.88;4.75;;;;;;;;;;10262770;28;20057;-68
2021/05/25 06:18:25;;;;;;;7.30;4.32;;;;;;;;;;10261830;28;20049;-68
2021/05/25 06:23:22;;;;;;;10.07;5.43;;;;;;;;;;10258238;28;20052;-71
2021/05/25 06:28:18;;;;;;;6.93;5.35;;;;;;;;;;10259402;28;20045;-70
2021/05/25 06:33:14;;;;;;;7.93;5.10;;;;;;;;;;10258506;28;20052;-71
2021/05/25 06:38:12;;;;;;;7.05;4.65;;;;;;;;;;10258063;28;20053;-71
2021/05/25 06:43:08;;;;;;;7.97;4.40;;;;;;;;;;10259822;28;20449;-70
2021/05/25 06:48:09;;;;;;;8.30;4.10;;;;;;;;;;10261332;28;20049;-70
2021/05/25 06:53:05;;;;;;;6.35;3.45;;;;;;;;;;10262145;28;20051;-70
2021/05/25 06:58:02;;;;;;;7.30;4.45;;;;;;;;;;10261728;28;20087;-69
2021/05/25 07:02:58;;;;;;;7.03;3.97;;;;;;;;;;10246737;28;20092;-70
2021/05/25 07:07:55;;;;;;;6.80;3.85;;;;;;;;;;10252787;28;20053;-70
2021/05/25 07:12:51;;;;;;;8.70;4.10;;;;;;;;;;10252107;28;20053;-69
2021/05/25 07:17:51;;;;;;;5.90;3.55;;;;;;;;;;10253120;28;20079;-70
2021/05/25 07:22:51;;;;;;;6.88;3.67;;;;;;;;;;10268098;28;20075;-69
2021/05/25 07:27:48;;;;;;;5.45;2.58;;;;;;;;;;10258195;28;20041;-70
2021/05/25 07:32:44;;;;;;;4.85;2.85;;;;;;;;;;10250866;28;20124;-70
2021/05/25 07:37:42;;;;;;;5.82;3.20;;;;;;;;;;10263833;28;20053;-70
2021/05/25 07:42:39;;;;;;;4.47;2.50;;;;;;;;;;10250749;28;20156;-70
2021/05/25 07:47:35;;;;;;;4.28;2.40;;;;;;;;;;10254164;28;20045;-70
2021/05/25 07:52:32;;;;;;;7.55;3.35;;;;;;;;;;10255674;28;20049;-71
2021/05/25 07:57:29;;;;;;;5.85;2.60;;;;;;;;;;10255684;28;20057;-68
2021/05/25 08:02:26;;;;;;;6.20;2.65;;;;;;;;;;10253959;28;20111;-69
2021/05/25 08:07:22;;;;;;;6.15;1.90;;;;;;;;;;10256477;28;20056;-71
2021/05/25 08:12:19;;;;;;;6.30;1.85;;;;;;;;;;10248696;28;20099;-68
2021/05/25 08:17:21;;;;;;;3.72;1.48;;;;;;;;;;10248512;28;20060;-70
2021/05/25 08:22:18;;;;;;;4.15;1.85;;;;;;;;;;10236647;28;20053;-70
2021/05/25 08:27:14;;;;;;;7.25;1.70;;;;;;;;;;10255409;28;20119;-70
2021/05/25 08:32:27;;;;;;;3.15;1.25;;;;;;;;;;10246427;28;20060;-69
2021/05/25 08:37:24;;;;;;;3.25;1.02;;;;;;;;;;10252699;28;20044;-71
2021/05/25 08:42:20;;;;;;;3.25;1.10;;;;;;;;;;10251262;28;20081;-70
2021/05/25 08:47:17;;;;;;;4.97;1.65;;;;;;;;;;10252784;28;20041;-70
2021/05/25 08:52:15;;;;;;;5.13;1.75;;;;;;;;;;10249588;28;20045;-70
2021/05/25 08:57:12;;;;;;;7.20;2.13;;;;;;;;;;10259975;28;20037;-69
2021/05/25 09:02:11;;;;;;;3.83;2.00;;;;;;;;;;10258794;28;20498;-70
2021/05/25 09:07:08;;;;;;;5.88;2.97;;;;;;;;;;10266071;28;20071;-70
2021/05/25 09:12:07;;;;;;;6.78;3.20;;;;;;;;;;10268325;28;20045;-69
2021/05/25 09:17:17;;;;;;;6.97;2.95;;;;;;;;;;10256373;28;20110;-70
2021/05/25 09:22:26;;;;;;;6.38;3.55;;;;;;;;;;10269840;28;20045;-70
2021/05/25 09:27:35;;;;;;;8.45;3.25;;;;;;;;;;10261145;28;20057;-69
2021/05/25 09:32:36;;;;;;;6.70;3.30;;;;;;;;;;10265826;28;20044;-70
2021/05/25 09:37:46;;;;;;;8.70;3.88;;;;;;;;;;10254762;28;20597;-69
2021/05/25 09:42:43;;;;;;;8.32;3.40;;;;;;;;;;10261749;28;20187;-71
2021/05/25 09:47:41;;;;;;;6.40;3.53;;;;;;;;;;10256439;28;20053;-69
2021/05/25 09:52:56;;;;;;;7.70;3.05;;;;;;;;;;10255221;28;20179;-70
2021/05/25 09:57:57;;;;;;;5.10;3.25;;;;;;;;;;10255502;28;20110;-69
2021/05/25 10:03:09;;;;;;;7.85;3.05;;;;;;;;;;10257610;28;20434;-69
2021/05/25 10:08:06;;;;;;;5.13;2.50;;;;;;;;;;10255061;28;20049;-69
2021/05/25 10:13:03;;;;;;;5.22;2.38;;;;;;;;;;10256894;28;20596;-70
2021/05/25 10:23:16;;;;;;;6.53;2.90;;;;;;;;;;10256271;28;20469;-69
2021/05/25 10:28:13;;;;;;;6.53;2.90;;;;;;;;;;10264323;28;20499;-68
2021/05/25 10:33:09;;;;;;;9.50;2.83;;;;;;;;;;10254362;28;20110;-68
2021/05/25 10:38:06;;;;;;;10.27;3.20;;;;;;;;;;10259016;28;20107;-68
2021/05/25 10:43:21;;;;;;;8.82;3.53;;;;;;;;;;10247388;28;20069;-68
2021/05/25 10:48:44;;;;;;;7.68;3.92;;;;;;;;;;10239526;28;20045;-67
2021/05/25 10:53:41;;;;;;;12.45;5.63;;;;;;;;;;10241433;28;20049;-68
2021/05/25 10:58:37;;;;;;;12.70;4.97;;;;;;;;;;10241961;28;20115;-68
2021/05/25 11:03:33;;;;;;;8.98;3.72;;;;;;;;;;10256058;28;20084;-68
2021/05/25 11:08:31;;;;;;;7.50;3.45;;;;;;;;;;10248549;28;20046;-67
2021/05/25 11:13:30;;;;;;;7.13;3.33;;;;;;;;;;10253907;28;20060;-68
2021/05/25 11:18:40;;;;;;;7.07;2.20;;;;;;;;;;10242385;28;20553;-68
2021/05/25 11:23:37;;;;;;;8.82;3.03;;;;;;;;;;10251899;28;20136;-68
2021/05/25 11:28:52;;;;;;;7.35;2.72;;;;;;;;;;10254197;28;20091;-68
2021/05/25 11:33:49;;;;;;;7.35;2.63;;;;;;;;;;10258786;28;20041;-68
2021/05/25 11:38:48;;;;;;;8.43;2.25;;;;;;;;;;10255060;28;20049;-68
2021/05/25 11:43:45;;;;;;;7.72;3.47;;;;;;;;;;10252487;28;20072;-68
2021/05/25 11:48:41;;;;;;;4.15;1.95;;;;;;;;;;10250318;28;20049;-68
2021/05/25 11:53:37;;;;;;;4.47;1.98;;;;;;;;;;10238176;28;20041;-68
2021/05/25 11:58:34;;;;;;;5.50;1.75;;;;;;;;;;10247003;28;20049;-68
2021/05/25 12:03:37;;;;;;;3.88;1.40;;;;;;;;;;10247169;28;20075;-68
2021/05/25 12:08:33;;;;;;;5.00;1.07;;;;;;;;;;10249668;28;20045;-68
2021/05/25 12:13:32;;;;;;;6.13;2.03;;;;;;;;;;10244977;28;20045;-69
2021/05/25 12:18:35;;;;;;;6.97;1.17;;;;;;;;;;10255533;28;20151;-68
2021/05/25 12:23:31;;;;;;;3.85;1.30;;;;;;;;;;10249553;28;20419;-67
2021/05/25 12:28:48;;;;;;;6.63;2.50;;;;;;;;;;10258238;28;20049;-67
2021/05/25 12:33:46;;;;;;;4.68;1.80;;;;;;;;;;10260901;28;20099;-68
2021/05/25 12:38:54;;;;;;;4.28;1.73;;;;;;;;;;10259576;28;20495;-67
2021/05/25 12:43:50;;;;;;;8.50;1.98;;;;;;;;;;10257273;28;20064;-68
2021/05/25 12:48:47;;;;;;;6.60;2.28;;;;;;;;;;10267171;28;20037;-68
2021/05/25 12:53:50;;;;;;;5.03;1.70;;;;;;;;;;10258638;28;20095;-68
2021/05/25 12:58:47;;;;;;;4.20;1.58;;;;;;;;;;10262044;28;20146;-68
2021/05/25 13:03:44;;;;;;;4.72;1.50;;;;;;;;;;10257523;28;20564;-68
2021/05/25 13:08:42;;;;;;;5.50;1.75;;;;;;;;;;10251572;28;20103;-67
2021/05/25 13:13:44;;;;;;;2.95;0.93;;;;;;;;;;10259290;28;20049;-68
2021/05/25 13:18:41;;;;;;;2.13;0.60;;;;;;;;;;10256140;28;20088;-67
2021/05/25 13:23:37;;;;;;;2.05;0.65;;;;;;;;;;10261886;28;20110;-67
2021/05/25 13:28:45;;;;;;;1.38;0.50;;;;;;;;;;10247975;28;20197;-70
2021/05/25 13:33:42;;;;;;;2.67;0.60;;;;;;;;;;10262243;28;20061;-68
2021/05/25 13:38:41;;;;;;;1.17;0.45;;;;;;;;;;10257575;28;20151;-68
2021/05/25 13:43:38;;;;;;;1.95;0.70;;;;;;;;;;10253430;28;20130;-68
2021/05/25 13:48:35;;;;;;;2.08;0.60;;;;;;;;;;10255844;28;20103;-68
2021/05/25 13:53:31;;;;;;;3.47;0.77;;;;;;;;;;10257505;28;20084;-67
2021/05/25 13:58:29;;;;;;;4.53;1.10;;;;;;;;;;10264615;28;20041;-68
2021/05/25 14:03:26;;;;;;;3.25;1.48;;;;;;;;;;10268271;28;20136;-68
2021/05/25 14:08:22;;;;;;;3.92;1.65;;;;;;;;;;10258336;28;20467;-68
2021/05/25 14:13:18;;;;;;;4.00;1.88;;;;;;;;;;10256323;28;20040;-69
2021/05/25 14:18:15;;;;;;;6.78;2.20;;;;;;;;;;10257472;28;20461;-68
2021/05/25 14:23:11;;;;;;;6.88;2.53;;;;;;;;;;10260166;28;20501;-68
2021/05/25 14:28:09;;;;;;;10.00;4.50;;;;;;;;;;10255056;28;20080;-67
2021/05/25 14:33:05;;;;;;;7.03;3.10;;;;;;;;;;10250864;28;20466;-68
2021/05/25 14:38:02;;;;;;;7.05;3.83;;;;;;;;;;10253271;28;20092;-68
2021/05/25 14:42:59;;;;;;;9.48;3.53;;;;;;;;;;10255252;28;20041;-68
2021/05/25 14:47:55;;;;;;;9.93;4.05;;;;;;;;;;10241763;28;20095;-68
2021/05/25 14:52:54;;;;;;;12.95;5.28;;;;;;;;;;10256331;28;20045;-67
2021/05/25 14:57:51;;;;;;;7.15;3.60;;;;;;;;;;10251167;28;20076;-69
2021/05/25 15:03:00;;;;;;;8.68;4.00;;;;;;;;;;10264311;28;20051;-70
2021/05/25 15:08:00;;;;;;;7.30;3.85;;;;;;;;;;10248605;28;20041;-69
2021/05/25 15:12:56;;;;;;;4.30;1.98;;;;;;;;;;10256527;28;20056;-69
2021/05/25 15:17:53;;;;;;;1.17;0.43;;;;;;;;;;10264624;28;20037;-70
2021/05/25 15:22:49;;;;;;;1.92;0.60;;;;;;;;;;10256658;28;20096;-69
2021/05/25 15:27:50;;;;;;;1.13;0.47;;;;;;;;;;10247358;28;20062;-70
2021/05/25 15:32:46;;;;;;;1.25;0.50;;;;;;;;;;10247520;28;20052;-70
2021/05/25 15:37:44;;;;;;;0.65;0.38;;;;;;;;;;10249537;28;20071;-69
2021/05/25 15:42:40;;;;;;;1.52;0.35;;;;;;;;;;10255761;28;20461;-70
2021/05/25 15:47:36;;;;;;;2.47;0.50;;;;;;;;;;10249881;28;20052;-70
2021/05/25 15:52:34;;;;;;;0.32;0.20;;;;;;;;;;10256628;28;20047;-69
2021/05/25 15:57:30;;;;;;;0.57;0.30;;;;;;;;;;10257755;28;20045;-70
2021/05/25 16:02:30;;;;;;;1.35;0.65;;;;;;;;;;10257596;28;20045;-71
2021/05/25 16:07:26;;;;;;;1.35;0.40;;;;;;;;;;10267955;28;20041;-70
2021/05/25 16:12:23;;;;;;;0.50;0.22;;;;;;;;;;10268407;28;20076;-71
2021/05/25 16:17:19;;;;;;;0.82;0.20;;;;;;;;;;10255024;28;20068;-70
2021/05/25 16:22:15;;;;;;;0.63;0.28;;;;;;;;;;10264173;28;20073;-70
2021/05/25 16:27:12;;;;;;;1.35;0.30;;;;;;;;;;10258394;28;20502;-70
2021/05/25 16:32:08;;;;;;;1.25;0.20;;;;;;;;;;10261329;28;20037;-70
2021/05/25 16:37:06;;;;;;;1.95;0.50;;;;;;;;;;10256787;28;20081;-72
2021/05/25 16:42:03;;;;;;;1.17;0.40;;;;;;;;;;10255302;28;20094;-69
2021/05/25 16:46:59;;;;;;;2.67;0.73;;;;;;;;;;10261985;28;20442;-68
2021/05/25 16:51:55;;;;;;;2.40;0.60;;;;;;;;;;10256352;28;20037;-69
2021/05/25 16:56:52;;;;;;;1.73;0.63;;;;;;;;;;10256696;28;20049;-68
2021/05/25 17:11:54;;;;;;;2.50;0.73;;;;;;;;;;10259979;28;20048;-69
2021/05/25 17:22:05;;;;;;;3.37;1.20;;;;;;;;;;10266313;28;19968;-70
2021/05/25 17:27:02;;;;;;;5.47;1.40;;;;;;;;;;10253442;28;20045;-70
2021/05/25 17:31:58;;;;;;;2.72;1.08;;;;;;;;;;10254232;28;20044;-70
2021/05/25 17:36:55;;;;;;;5.28;1.40;;;;;;;;;;10255675;28;20041;-69
2021/05/25 17:41:51;;;;;;;3.90;1.00;;;;;;;;;;10244087;28;20530;-70
2021/05/25 17:46:48;;;;;;;2.83;1.20;;;;;;;;;;10250157;28;20099;-70
2021/05/25 17:51:46;;;;;;;4.60;1.05;;;;;;;;;;10252065;28;20044;-70
2021/05/25 17:56:43;;;;;;;4.80;1.00;;;;;;;;;;10252816;28;20067;-67
2021/05/25 18:01:40;;;;;;;4.28;0.75;;;;;;;;;;10246948;28;20048;-71
2021/05/25 18:06:50;;;;;;;3.88;1.00;;;;;;;;;;10241893;28;20045;-70
2021/05/25 18:11:47;;;;;;;3.58;0.73;;;;;;;;;;10262018;28;20430;-71
2021/05/25 18:16:44;;;;;;;2.05;0.77;;;;;;;;;;10258128;28;20041;-69
2021/05/25 18:21:40;;;;;;;2.40;0.80;;;;;;;;;;10261839;28;20069;-71
2021/05/25 18:26:37;;;;;;;4.40;0.80;;;;;;;;;;10259575;28;20146;-71
2021/05/25 18:31:39;;;;;;;2.42;0.80;;;;;;;;;;10264851;28;20450;-70
2021/05/25 18:46:49;;;;;;;3.97;1.00;;;;;;;;;;10257138;28;20061;-71
2021/05/25 18:51:46;;;;;;;4.25;1.00;;;;;;;;;;10276255;28;20136;-71
2021/05/25 18:57:27;;;;;;;3.40;1.30;;;;;;;;;;10260816;28;20049;-71
2021/05/25 19:02:06;;;;;;;4.07;1.00;;;;;;;;;;10248527;28;20041;-68
2021/05/25 19:07:04;;;;;;;2.90;1.10;;;;;;;;;;10267565;28;20456;-71
2021/05/25 19:12:01;;;;;;;5.00;1.60;;;;;;;;;;10263321;28;20063;-71
2021/05/25 19:16:58;;;;;;;4.78;1.67;;;;;;;;;;10262746;28;20568;-71
2021/05/25 19:27:10;;;;;;;5.97;1.70;;;;;;;;;;10253826;28;20083;-70
2021/05/25 19:32:06;;;;;;;7.25;2.03;;;;;;;;;;10251827;28;20046;-72
2021/05/25 19:37:03;;;;;;;4.53;1.55;;;;;;;;;;10274912;28;20083;-71
2021/05/25 19:42:01;;;;;;;4.35;1.90;;;;;;;;;;10255133;28;20085;-70
2021/05/25 19:46:58;;;;;;;4.03;1.65;;;;;;;;;;10250154;28;20087;-72
2021/05/25 19:51:55;;;;;;;5.00;1.70;;;;;;;;;;10245431;28;20142;-70
2021/05/25 19:56:51;;;;;;;5.25;1.50;;;;;;;;;;10260853;28;20045;-69
2021/05/25 20:01:47;;;;;;;6.10;1.42;;;;;;;;;;10253918;28;20096;-70
2021/05/25 20:06:44;;;;;;;3.20;1.10;;;;;;;;;;10254884;28;20133;-71
2021/05/25 20:11:40;;;;;;;2.58;1.17;;;;;;;;;;10256876;28;20041;-70
2021/05/25 20:16:37;;;;;;;4.10;1.65;;;;;;;;;;10248053;28;20079;-68
2021/05/25 20:21:33;;;;;;;3.78;1.50;;;;;;;;;;10252465;28;20045;-68
2021/05/25 20:26:30;;;;;;;5.93;2.15;;;;;;;;;;10253837;28;20033;-69
2021/05/25 20:31:30;;;;;;;5.90;2.08;;;;;;;;;;10250951;28;20550;-68
2021/05/25 20:41:45;;;;;;;5.15;2.33;;;;;;;;;;10256352;28;20736;-66
2021/05/25 20:46:42;;;;;;;4.85;1.88;;;;;;;;;;10259611;28;20044;-67
2021/05/25 20:51:38;;;;;;;7.05;2.13;;;;;;;;;;10278722;28;20098;-67
2021/05/25 20:56:35;;;;;;;7.22;2.53;;;;;;;;;;10274466;28;20037;-66
2021/05/25 21:01:31;;;;;;;5.18;2.42;;;;;;;;;;10266915;28;20055;-67
2021/05/25 21:06:27;;;;;;;6.70;2.53;;;;;;;;;;10261545;28;20072;-68
2021/05/25 21:11:23;;;;;;;5.88;2.38;;;;;;;;;;10277079;28;20041;-68
2021/05/25 21:16:20;;;;;;;5.60;2.47;;;;;;;;;;10264194;28;20167;-67
2021/05/25 21:21:16;;;;;;;7.03;2.85;;;;;;;;;;10268996;28;20049;-68
2021/05/25 21:26:14;;;;;;;5.80;2.95;;;;;;;;;;10266681;28;20045;-68
2021/05/25 21:31:10;;;;;;;7.63;3.17;;;;;;;;;;10253850;28;20037;-68
2021/05/25 21:36:07;;;;;;;7.57;3.25;;;;;;;;;;10269978;28;20044;-67
2021/05/25 21:41:03;;;;;;;4.88;2.95;;;;;;;;;;10267408;28;20056;-66
2021/05/25 21:46:00;;;;;;;5.88;3.25;;;;;;;;;;10264531;28;20463;-66
2021/05/25 21:50:56;;;;;;;6.35;2.88;;;;;;;;;;10269272;28;20073;-68
2021/05/25 21:55:52;;;;;;;6.10;2.58;;;;;;;;;;10273062;28;20475;-71
2021/05/25 22:00:49;;;;;;;6.20;2.63;;;;;;;;;;10263762;28;20048;-70
2021/05/25 22:05:45;;;;;;;4.85;2.40;;;;;;;;;;10262796;28;20064;-70
2021/05/25 22:10:42;;;;;;;4.57;2.05;;;;;;;;;;10264602;28;20186;-68
2021/05/25 22:15:39;;;;;;;4.63;2.35;;;;;;;;;;10268083;28;20071;-68
2021/05/25 22:20:36;;;;;;;5.13;3.10;;;;;;;;;;10268681;28;20123;-66
2021/05/25 22:25:34;;;;;;;7.43;2.92;;;;;;;;;;10270584;28;20045;-67
2021/05/25 22:30:30;;;;;;;6.05;3.10;;;;;;;;;;10258952;28;20140;-67
2021/05/25 22:35:27;;;;;;;4.97;2.92;;;;;;;;;;10254731;28;20041;-66
2021/05/25 22:40:25;;;;;;;10.68;3.08;;;;;;;;;;10269291;28;20785;-68
2021/05/25 22:45:22;;;;;;;5.22;3.60;;;;;;;;;;10264257;28;20052;-66
2021/05/25 22:50:18;;;;;;;4.50;3.00;;;;;;;;;;10268653;28;20094;-67
2021/05/25 22:55:15;;;;;;;5.05;3.53;;;;;;;;;;10268749;28;20041;-66
2021/05/25 23:00:13;;;;;;;6.60;4.80;;;;;;;;;;10268657;28;20053;-67
2021/05/25 23:05:13;;;;;;;6.90;4.88;;;;;;;;;;10268746;28;20092;-69
2021/05/25 23:10:10;;;;;;;7.95;4.47;;;;;;;;;;10270711;28;20079;-67
2021/05/25 23:15:07;;;;;;;6.60;4.13;;;;;;;;;;10271098;28;20478;-66
2021/05/25 23:20:05;;;;;;;6.18;4.05;;;;;;;;;;10269504;28;20080;-68
2021/05/25 23:25:02;;;;;;;6.32;4.07;;;;;;;;;;10273067;28;20486;-68
2021/05/25 23:29:58;;;;;;;5.72;3.85;;;;;;;;;;10261981;28;20533;-68
2021/05/25 23:34:56;;;;;;;5.82;3.97;;;;;;;;;;10264418;28;20041;-65
2021/05/25 23:39:52;;;;;;;5.78;4.15;;;;;;;;;;10269226;28;20040;-66
2021/05/25 23:44:49;;;;;;;6.13;3.70;;;;;;;;;;10264739;28;20040;-66
2021/05/25 23:49:45;;;;;;;5.95;3.50;;;;;;;;;;10271032;28;20446;-66
2021/05/25 23:54:41;;;;;;;5.30;3.22;;;;;;;;;;10274878;28;20037;-66
2021/05/25 23:59:38;;;;;;;6.35;3.92;;;;;;;;;;10271772;28;20079;-69
